TA42 weather

Twisted T Field
Burton, Texas, United States

Public forecast

Using degrees Fahrenheit for public forecast. Weather courtesy of forecast.io.

Closest aviation weather report (METAR) to Twisted T Field

Closest report is Brenham Municipal Airport, 11.9 nm (22.0 km) ESE. Retrieved 2020/01/24 04:35 UTC (0 seconds ago):

K11R 240435Z AUTO 00000KT 7SM CLR 07/07 A3012 RMK AO2 LTG DSNT SE T00700068

Closest aviation forecast (TAF) to Twisted T Field

Closest forecast is Easterwood Field, 23.1 nm (42.9 km) NNE. Retrieved 2020-01-24 00:22 UTC (4 hours ago):

TAF KCLL 232320Z 2400/2424 33010KT P6SM SCT020 FM240200 34004KT P6SM SKC